Time;durP1;ratioP1;P1;durP2;ratioP2;P2;SDS_P1;SDS_P2;PMS_P1;PMS_P2;Temp;Humidity;BMP_temperature;BMP_pressure;BME280_temperature;BME280_humidity;BME280_pressure;Samples;Min_cycle;Max_cycle;Signal;HPM_P1;HPM_P2
2023/08/03 00:00:23;;;;;;;9.13;1.58;;;19.50;99.90;;;;;;5012859;28;20042;-45
2023/08/03 00:02:49;;;;;;;5.18;1.55;;;19.60;99.90;;;;;;5012945;28;20405;-49
2023/08/03 00:05:17;;;;;;;12.40;1.80;;;19.70;99.90;;;;;;5011882;28;20026;-50
2023/08/03 00:07:44;;;;;;;10.40;1.67;;;19.70;99.90;;;;;;4995115;28;20083;-47
2023/08/03 00:10:09;;;;;;;12.60;2.10;;;19.70;99.90;;;;;;5012555;28;20497;-48
2023/08/03 00:12:35;;;;;;;6.22;1.83;;;19.70;99.90;;;;;;5012538;28;20044;-48
2023/08/03 00:15:00;;;;;;;3.53;1.15;;;19.80;99.90;;;;;;5012677;28;20026;-47
2023/08/03 00:17:26;;;;;;;5.18;1.55;;;19.70;99.90;;;;;;5012424;28;20482;-48
2023/08/03 00:19:51;;;;;;;6.13;1.77;;;19.70;99.90;;;;;;5012505;28;20503;-47
2023/08/03 00:22:17;;;;;;;8.75;1.60;;;19.70;99.90;;;;;;5012499;28;20030;-48
2023/08/03 00:24:42;;;;;;;6.28;1.73;;;19.70;99.90;;;;;;5012507;28;20033;-48
2023/08/03 00:27:15;;;;;;;6.43;1.58;;;19.70;99.90;;;;;;5088963;28;20446;-49
2023/08/03 00:29:40;;;;;;;12.52;2.78;;;19.80;99.90;;;;;;5088795;28;20021;-48
2023/08/03 00:32:06;;;;;;;11.75;1.80;;;19.70;99.90;;;;;;5088805;28;20037;-50
2023/08/03 00:34:32;;;;;;;4.93;1.40;;;19.70;99.90;;;;;;5088836;28;20024;-50
2023/08/03 00:36:58;;;;;;;5.05;1.17;;;19.80;99.90;;;;;;5088875;28;20039;-48
2023/08/03 00:39:24;;;;;;;4.60;1.42;;;19.80;99.90;;;;;;5088378;28;20028;-48
2023/08/03 00:41:51;;;;;;;7.03;1.52;;;19.80;99.90;;;;;;5088638;28;20082;-47
2023/08/03 00:44:17;;;;;;;3.85;1.00;;;19.80;99.90;;;;;;5088748;28;20032;-47
2023/08/03 00:46:42;;;;;;;2.38;1.08;;;19.70;99.90;;;;;;5088647;28;20082;-47
2023/08/03 00:49:08;;;;;;;6.63;1.73;;;19.70;99.90;;;;;;5088810;28;20070;-45
2023/08/03 00:51:34;;;;;;;8.40;1.52;;;19.80;99.90;;;;;;5088700;28;20080;-45
2023/08/03 00:53:59;;;;;;;3.83;1.15;;;19.80;99.90;;;;;;5089009;28;20031;-46
2023/08/03 00:56:25;;;;;;;6.10;1.10;;;19.70;99.90;;;;;;5088782;28;20028;-48
2023/08/03 00:58:50;;;;;;;6.85;1.20;;;19.70;99.90;;;;;;5088219;28;20028;-50
2023/08/03 01:01:16;;;;;;;3.63;1.13;;;19.70;99.90;;;;;;5088414;28;20108;-50
2023/08/03 01:03:41;;;;;;;6.18;1.05;;;19.70;99.90;;;;;;5088845;28;20035;-45
2023/08/03 01:06:07;;;;;;;2.90;1.00;;;19.70;99.90;;;;;;5088136;28;20039;-47
2023/08/03 01:08:32;;;;;;;6.28;1.15;;;19.70;99.90;;;;;;5088003;28;20032;-47
2023/08/03 01:10:58;;;;;;;5.25;1.00;;;19.70;99.90;;;;;;5088111;28;20146;-48
2023/08/03 01:13:24;;;;;;;7.82;1.10;;;19.70;99.90;;;;;;5088229;28;20108;-47
2023/08/03 01:15:50;;;;;;;7.28;1.08;;;19.70;99.90;;;;;;5088192;28;20440;-47
2023/08/03 01:18:16;;;;;;;2.70;0.80;;;19.70;99.90;;;;;;5087910;28;20024;-44
2023/08/03 01:20:43;;;;;;;3.58;0.88;;;19.70;99.90;;;;;;5088095;28;20025;-49
2023/08/03 01:23:09;;;;;;;9.35;1.98;;;19.60;99.90;;;;;;5087967;28;20033;-45
2023/08/03 01:25:36;;;;;;;2.70;0.75;;;19.60;99.90;;;;;;5087906;28;20031;-51
2023/08/03 01:28:05;;;;;;;4.85;0.98;;;19.70;99.90;;;;;;5087851;28;20074;-51
2023/08/03 01:30:31;;;;;;;4.20;1.20;;;19.60;99.90;;;;;;5087534;28;20021;-46
2023/08/03 01:32:57;;;;;;;2.83;0.80;;;19.60;99.90;;;;;;5087373;28;20023;-48
2023/08/03 01:35:22;;;;;;;2.95;0.90;;;19.60;99.90;;;;;;5087901;28;20131;-45
2023/08/03 01:37:50;;;;;;;5.22;1.10;;;19.50;99.90;;;;;;5079079;28;20025;-47
2023/08/03 01:40:17;;;;;;;5.15;0.85;;;19.40;99.90;;;;;;5074335;28;20029;-48
2023/08/03 01:42:42;;;;;;;4.43;1.20;;;19.40;99.90;;;;;;5075399;28;20029;-46
2023/08/03 01:45:09;;;;;;;2.58;0.90;;;19.30;99.90;;;;;;5074402;28;20032;-45
2023/08/03 01:47:34;;;;;;;3.28;1.15;;;19.20;99.90;;;;;;5073959;28;20031;-49
2023/08/03 01:50:00;;;;;;;11.75;0.77;;;19.00;99.90;;;;;;5073964;28;20021;-45
2023/08/03 01:52:25;;;;;;;3.95;0.90;;;18.90;99.90;;;;;;5074009;28;20024;-45
2023/08/03 01:54:51;;;;;;;1.58;0.85;;;18.80;99.90;;;;;;5073943;28;20029;-49
2023/08/03 01:57:19;;;;;;;6.32;1.20;;;18.80;99.90;;;;;;5073886;28;20032;-48
2023/08/03 01:59:45;;;;;;;4.93;1.45;;;18.70;99.90;;;;;;5074107;28;20052;-50
2023/08/03 02:02:11;;;;;;;8.73;1.15;;;18.70;99.90;;;;;;5073697;28;20063;-45
2023/08/03 02:04:37;;;;;;;3.58;0.93;;;18.60;99.90;;;;;;5073722;28;20035;-51
2023/08/03 02:07:14;;;;;;;2.47;1.17;;;18.60;99.90;;;;;;5073614;28;20032;-45
2023/08/03 02:09:39;;;;;;;2.72;0.73;;;18.50;99.90;;;;;;5073403;28;20025;-44
2023/08/03 02:12:05;;;;;;;3.47;0.80;;;18.50;99.90;;;;;;5073973;28;20085;-49
2023/08/03 02:14:31;;;;;;;2.40;0.70;;;18.50;99.90;;;;;;5073598;28;20021;-45
2023/08/03 02:16:57;;;;;;;4.55;0.73;;;18.50;99.90;;;;;;5073695;28;20036;-49
2023/08/03 02:19:22;;;;;;;4.50;1.35;;;18.50;99.90;;;;;;5073365;28;20548;-45
2023/08/03 02:21:47;;;;;;;4.90;0.73;;;18.50;99.90;;;;;;5073498;28;20433;-49
2023/08/03 02:24:13;;;;;;;2.95;1.02;;;18.40;99.90;;;;;;5073429;28;20028;-45
2023/08/03 02:26:38;;;;;;;3.85;0.90;;;18.40;99.90;;;;;;5073059;28;20024;-45
2023/08/03 02:29:04;;;;;;;4.22;0.60;;;18.40;99.90;;;;;;5072913;28;20388;-46
2023/08/03 02:31:29;;;;;;;2.35;0.95;;;18.40;99.90;;;;;;5071397;28;20075;-45
2023/08/03 02:33:55;;;;;;;4.43;0.70;;;18.30;99.90;;;;;;5073071;28;20031;-45
2023/08/03 02:36:20;;;;;;;1.63;0.68;;;18.30;99.90;;;;;;5072996;28;20514;-46
2023/08/03 02:38:46;;;;;;;5.07;1.20;;;18.30;99.90;;;;;;5072675;28;20029;-49
2023/08/03 02:41:11;;;;;;;4.70;1.20;;;18.20;99.90;;;;;;5073004;28;20036;-47
2023/08/03 02:43:37;;;;;;;5.75;1.10;;;18.20;99.90;;;;;;5072778;28;20037;-45
2023/08/03 02:46:02;;;;;;;3.97;1.10;;;18.20;99.90;;;;;;5072860;28;20075;-48
2023/08/03 02:48:28;;;;;;;1.90;1.02;;;18.10;99.90;;;;;;5072024;28;20027;-45
2023/08/03 02:50:53;;;;;;;4.38;0.80;;;18.10;99.90;;;;;;5072453;28;20031;-43
2023/08/03 02:53:19;;;;;;;5.97;1.60;;;18.00;99.90;;;;;;5072876;28;20532;-44
2023/08/03 02:55:44;;;;;;;4.82;1.20;;;18.00;99.90;;;;;;5072709;28;20503;-45
2023/08/03 02:58:10;;;;;;;7.90;1.15;;;17.90;99.90;;;;;;5072640;28;20078;-46
2023/08/03 03:00:35;;;;;;;4.75;0.90;;;18.00;99.90;;;;;;5072615;28;20021;-45
2023/08/03 03:03:01;;;;;;;4.93;1.20;;;17.90;99.90;;;;;;5072847;28;20399;-48
2023/08/03 03:05:26;;;;;;;6.07;1.33;;;17.70;99.90;;;;;;5072447;28;20491;-45
2023/08/03 03:07:52;;;;;;;2.75;1.00;;;17.70;99.90;;;;;;5072568;28;20025;-48
2023/08/03 03:10:17;;;;;;;3.63;1.13;;;17.70;99.90;;;;;;5072284;28;20039;-49
2023/08/03 03:12:43;;;;;;;3.75;1.25;;;17.60;99.90;;;;;;5072315;28;20020;-48
2023/08/03 03:15:09;;;;;;;2.63;0.90;;;17.60;99.90;;;;;;5072332;28;20025;-45
2023/08/03 03:17:35;;;;;;;1.92;1.00;;;17.60;99.90;;;;;;5072192;28;20024;-45
2023/08/03 03:20:00;;;;;;;6.30;1.20;;;17.60;99.90;;;;;;5072465;28;20025;-47
2023/08/03 03:22:26;;;;;;;5.28;1.83;;;17.60;99.90;;;;;;5072141;28;20529;-50
2023/08/03 03:24:52;;;;;;;5.68;1.15;;;17.60;99.90;;;;;;5071984;28;20395;-50
2023/08/03 03:27:17;;;;;;;6.50;1.08;;;17.60;99.90;;;;;;5072006;28;20052;-44
2023/08/03 03:29:43;;;;;;;5.18;1.00;;;17.50;99.90;;;;;;5071803;28;20063;-45
2023/08/03 03:32:08;;;;;;;7.45;0.98;;;17.50;99.90;;;;;;5071789;28;20050;-48
2023/08/03 03:34:34;;;;;;;1.98;1.17;;;17.40;99.90;;;;;;5071868;28;20028;-48
2023/08/03 03:36:59;;;;;;;11.23;1.52;;;17.40;99.90;;;;;;5070602;28;20484;-49
2023/08/03 03:39:25;;;;;;;7.80;1.42;;;17.40;99.90;;;;;;5071429;28;20032;-47
2023/08/03 03:41:50;;;;;;;6.03;1.05;;;17.40;99.90;;;;;;5071838;28;20017;-45
2023/08/03 03:44:16;;;;;;;7.03;1.00;;;17.40;99.90;;;;;;5071931;28;20317;-45
2023/08/03 03:46:41;;;;;;;2.88;1.20;;;17.40;99.90;;;;;;5070388;28;20025;-47
2023/08/03 03:49:07;;;;;;;4.75;1.40;;;17.40;99.90;;;;;;5070141;28;20505;-48
2023/08/03 03:51:32;;;;;;;3.72;1.88;;;17.40;99.90;;;;;;5072197;28;20480;-46
2023/08/03 03:53:57;;;;;;;6.78;1.52;;;17.40;99.90;;;;;;5071612;28;20020;-46
2023/08/03 03:56:23;;;;;;;5.63;1.67;;;17.50;99.90;;;;;;5071658;28;20514;-46
2023/08/03 03:58:48;;;;;;;4.75;1.20;;;17.50;99.90;;;;;;5071463;28;20043;-45
2023/08/03 04:01:14;;;;;;;1.75;0.98;;;17.50;99.90;;;;;;5071316;28;20442;-45
2023/08/03 04:03:39;;;;;;;2.47;1.13;;;17.40;99.90;;;;;;5070153;28;20558;-45
2023/08/03 04:06:05;;;;;;;4.78;1.20;;;17.40;99.90;;;;;;5071453;28;20483;-45
2023/08/03 04:08:30;;;;;;;3.03;1.08;;;17.40;99.90;;;;;;5069736;28;20021;-45
2023/08/03 04:10:56;;;;;;;9.13;1.10;;;17.40;99.90;;;;;;5071394;28;20384;-46
2023/08/03 04:13:21;;;;;;;6.88;1.05;;;17.40;99.90;;;;;;5071418;28;20039;-49
2023/08/03 04:15:47;;;;;;;5.35;1.10;;;17.40;99.90;;;;;;5071304;28;20135;-44
2023/08/03 04:18:12;;;;;;;3.97;1.08;;;17.40;99.90;;;;;;5071259;28;20509;-44
2023/08/03 04:20:38;;;;;;;3.50;1.13;;;17.40;99.90;;;;;;5071288;28;20039;-50
2023/08/03 04:23:03;;;;;;;1.88;0.68;;;17.40;99.90;;;;;;5071245;28;20039;-48
2023/08/03 04:25:29;;;;;;;2.17;0.80;;;17.40;99.90;;;;;;5071190;28;20040;-45
2023/08/03 04:27:54;;;;;;;0.80;0.60;;;17.40;99.90;;;;;;5071248;28;20024;-47
2023/08/03 04:30:20;;;;;;;5.47;1.20;;;17.40;99.90;;;;;;5071064;28;20078;-52
2023/08/03 04:32:45;;;;;;;7.43;1.30;;;17.40;99.90;;;;;;5071071;28;20067;-45
2023/08/03 04:35:11;;;;;;;1.63;0.70;;;17.40;99.90;;;;;;5071108;28;20031;-46
2023/08/03 04:37:36;;;;;;;5.10;1.10;;;17.40;99.90;;;;;;5071417;28;20344;-48
2023/08/03 04:40:04;;;;;;;2.92;1.00;;;17.40;99.90;;;;;;5071016;28;20028;-47
2023/08/03 04:42:29;;;;;;;3.55;1.17;;;17.30;99.90;;;;;;5071162;28;20027;-50
2023/08/03 04:44:56;;;;;;;3.45;1.52;;;17.30;99.90;;;;;;5071254;28;20111;-48
2023/08/03 04:47:21;;;;;;;12.75;2.20;;;17.30;99.90;;;;;;5071177;28;20032;-47
2023/08/03 04:49:47;;;;;;;5.07;0.95;;;17.20;99.90;;;;;;5070734;28;20024;-47
2023/08/03 04:52:12;;;;;;;5.18;1.38;;;17.20;99.90;;;;;;5071104;28;20032;-46
2023/08/03 04:54:38;;;;;;;7.85;1.30;;;17.20;99.90;;;;;;5071081;28;20078;-46
2023/08/03 04:57:04;;;;;;;5.38;1.90;;;17.20;99.90;;;;;;5070888;28;20396;-50
2023/08/03 04:59:29;;;;;;;7.25;1.33;;;17.20;99.90;;;;;;5070781;28;20031;-47
2023/08/03 05:01:55;;;;;;;5.88;1.13;;;17.10;99.90;;;;;;5071043;28;20028;-44
2023/08/03 05:04:20;;;;;;;1.42;0.80;;;17.10;99.90;;;;;;5070903;28;20527;-49
2023/08/03 05:06:46;;;;;;;4.68;1.92;;;17.10;99.90;;;;;;5070770;28;20028;-48
2023/08/03 05:09:11;;;;;;;5.97;1.35;;;17.10;99.90;;;;;;5070594;28;20031;-46
2023/08/03 05:11:37;;;;;;;6.85;1.20;;;17.10;99.90;;;;;;5069778;28;20299;-44
2023/08/03 05:14:02;;;;;;;6.72;1.52;;;17.10;99.90;;;;;;5074336;28;20074;-49
2023/08/03 05:16:28;;;;;;;4.45;1.27;;;17.10;99.90;;;;;;5074816;28;20074;-48
2023/08/03 05:18:54;;;;;;;3.42;1.17;;;17.10;99.90;;;;;;5074320;28;20060;-52
2023/08/03 05:21:19;;;;;;;6.00;1.40;;;17.10;99.90;;;;;;5074495;28;20527;-50
2023/08/03 05:23:46;;;;;;;5.53;1.15;;;17.20;99.90;;;;;;5074567;28;20052;-45
2023/08/03 05:26:12;;;;;;;3.65;0.98;;;17.10;99.90;;;;;;5074412;28;20464;-46
2023/08/03 05:28:37;;;;;;;2.72;1.20;;;17.10;99.90;;;;;;5074079;28;20553;-47
2023/08/03 05:31:05;;;;;;;2.60;1.00;;;17.10;99.90;;;;;;5074051;28;20036;-49
2023/08/03 05:33:32;;;;;;;5.05;1.30;;;17.10;99.90;;;;;;5074288;28;20058;-51
2023/08/03 05:35:58;;;;;;;3.45;1.55;;;17.10;99.90;;;;;;5074135;28;20028;-49
2023/08/03 05:38:23;;;;;;;3.85;1.33;;;17.10;99.90;;;;;;5074132;28;20028;-46
2023/08/03 05:40:49;;;;;;;2.28;1.00;;;17.00;99.90;;;;;;5074256;28;20041;-46
2023/08/03 05:43:15;;;;;;;7.30;1.10;;;17.00;99.90;;;;;;5074259;28;20021;-45
2023/08/03 05:45:44;;;;;;;1.00;0.90;;;17.00;99.90;;;;;;5074163;28;20025;-45
2023/08/03 05:48:20;;;;;;;3.25;1.20;;;17.00;99.90;;;;;;5074204;28;20591;-46
2023/08/03 05:50:48;;;;;;;4.10;1.77;;;17.00;99.90;;;;;;5074291;28;20472;-45
2023/08/03 05:53:14;;;;;;;5.95;1.10;;;17.00;99.90;;;;;;5074443;28;20016;-45
2023/08/03 05:55:41;;;;;;;5.65;1.40;;;17.10;99.90;;;;;;5072675;28;20035;-45
2023/08/03 05:58:13;;;;;;;5.13;1.10;;;17.00;99.90;;;;;;5073770;28;20032;-47
2023/08/03 06:00:41;;;;;;;2.60;1.08;;;17.00;99.90;;;;;;5073815;28;20029;-45
2023/08/03 06:03:11;;;;;;;5.85;1.55;;;16.90;99.90;;;;;;5073863;28;20399;-46
2023/08/03 06:05:45;;;;;;;5.07;1.40;;;16.80;99.90;;;;;;5073624;28;20618;-44
2023/08/03 06:08:17;;;;;;;2.33;0.93;;;16.80;99.90;;;;;;5073768;28;20016;-45
2023/08/03 06:10:51;;;;;;;7.13;0.90;;;16.90;99.90;;;;;;5073811;28;20064;-45
2023/08/03 06:13:19;;;;;;;5.57;1.35;;;17.10;99.90;;;;;;5073807;28;20553;-46
2023/08/03 06:15:47;;;;;;;4.68;1.00;;;17.00;99.90;;;;;;5073387;28;20543;-45
2023/08/03 06:18:18;;;;;;;6.10;1.48;;;17.00;99.90;;;;;;5072142;28;20028;-41
2023/08/03 06:20:49;;;;;;;3.88;1.00;;;16.90;99.90;;;;;;5073301;28;20098;-45
2023/08/03 06:23:22;;;;;;;6.30;2.63;;;16.90;99.90;;;;;;5073270;28;20029;-49
2023/08/03 06:25:50;;;;;;;5.40;1.60;;;16.90;99.90;;;;;;5073364;28;20028;-45
2023/08/03 06:28:20;;;;;;;5.45;1.30;;;16.80;99.90;;;;;;5073919;28;20484;-48
2023/08/03 06:30:46;;;;;;;8.32;1.27;;;16.80;99.90;;;;;;5073320;28;20020;-47
2023/08/03 06:33:15;;;;;;;4.72;1.38;;;16.90;99.90;;;;;;5072913;28;20020;-48
2023/08/03 06:35:43;;;;;;;5.35;1.30;;;16.80;99.90;;;;;;5073327;28;20484;-47
2023/08/03 06:38:12;;;;;;;5.65;1.80;;;16.80;99.90;;;;;;5073148;28;20047;-50
2023/08/03 06:40:40;;;;;;;7.55;1.50;;;16.80;99.90;;;;;;5072962;28;20032;-45
2023/08/03 06:43:06;;;;;;;4.28;1.50;;;16.80;99.90;;;;;;5073045;28;20035;-49
2023/08/03 06:45:33;;;;;;;5.60;1.70;;;16.90;99.90;;;;;;5072811;28;20036;-48
2023/08/03 06:47:59;;;;;;;7.20;1.05;;;17.00;99.90;;;;;;5072847;28;20127;-47
2023/08/03 06:50:26;;;;;;;5.78;1.25;;;17.00;99.90;;;;;;5072602;28;20070;-47
2023/08/03 06:52:52;;;;;;;6.13;1.50;;;17.00;99.90;;;;;;5072758;28;20177;-47
2023/08/03 06:55:18;;;;;;;5.28;1.52;;;17.00;99.90;;;;;;5071529;28;20441;-51
2023/08/03 06:57:44;;;;;;;5.22;1.40;;;17.00;99.90;;;;;;5072698;28;20095;-48
2023/08/03 07:00:11;;;;;;;3.25;1.50;;;17.10;99.90;;;;;;5072383;28;20024;-48
2023/08/03 07:02:36;;;;;;;3.15;1.30;;;17.20;99.90;;;;;;5072610;28;20025;-46
2023/08/03 07:05:02;;;;;;;6.35;1.35;;;17.40;99.90;;;;;;5072486;28;20040;-48
2023/08/03 07:07:28;;;;;;;7.85;1.45;;;17.50;99.90;;;;;;5072567;28;20032;-48
2023/08/03 07:09:54;;;;;;;5.00;1.52;;;17.50;99.90;;;;;;5072335;28;20035;-47
2023/08/03 07:12:19;;;;;;;4.18;1.33;;;17.50;99.90;;;;;;5072443;28;20017;-47
2023/08/03 07:14:46;;;;;;;7.47;2.47;;;17.60;99.90;;;;;;5072263;28;20371;-49
2023/08/03 07:17:11;;;;;;;4.13;1.08;;;17.60;99.90;;;;;;5072324;28;20051;-47
2023/08/03 07:19:37;;;;;;;3.10;1.40;;;17.70;99.90;;;;;;5072031;28;20125;-45
2023/08/03 07:22:02;;;;;;;3.33;1.30;;;17.70;99.90;;;;;;5072308;28;20540;-45
2023/08/03 07:24:30;;;;;;;6.80;1.63;;;17.60;99.90;;;;;;5072249;28;20052;-46
2023/08/03 07:26:56;;;;;;;7.22;1.95;;;17.60;99.90;;;;;;5072069;28;20395;-45
2023/08/03 07:29:21;;;;;;;8.82;1.73;;;17.50;99.90;;;;;;5071658;28;20108;-47
2023/08/03 07:31:48;;;;;;;11.63;1.73;;;17.40;99.90;;;;;;5071727;28;20021;-51
2023/08/03 07:34:14;;;;;;;5.80;1.38;;;17.40;99.90;;;;;;5071946;28;20068;-49
2023/08/03 07:36:39;;;;;;;2.38;0.95;;;17.50;99.90;;;;;;5071649;28;20029;-49
2023/08/03 07:39:05;;;;;;;5.38;1.52;;;17.50;99.90;;;;;;5070344;28;20031;-47
2023/08/03 07:41:31;;;;;;;5.72;1.67;;;17.50;99.90;;;;;;5071857;28;20029;-45
2023/08/03 07:43:56;;;;;;;7.38;1.52;;;17.60;99.90;;;;;;5071862;28;20543;-46
2023/08/03 07:46:22;;;;;;;7.50;1.60;;;17.50;99.90;;;;;;5072132;28;20104;-47
2023/08/03 07:48:47;;;;;;;7.18;1.88;;;17.60;99.90;;;;;;5071483;28;20074;-45
2023/08/03 07:51:14;;;;;;;6.07;1.65;;;17.60;99.90;;;;;;5071817;28;20588;-45
2023/08/03 07:53:39;;;;;;;3.65;1.20;;;17.70;99.90;;;;;;5071730;28;20017;-50
2023/08/03 07:56:17;;;;;;;8.98;1.75;;;17.70;99.90;;;;;;5071650;28;20093;-45
2023/08/03 07:58:43;;;;;;;9.88;1.83;;;17.70;99.90;;;;;;5071364;28;20024;-47
2023/08/03 08:01:08;;;;;;;7.93;1.58;;;17.60;99.90;;;;;;5071632;28;20020;-45
2023/08/03 08:03:38;;;;;;;8.32;2.00;;;17.60;99.90;;;;;;5071528;28;20028;-45
2023/08/03 08:06:05;;;;;;;6.60;1.58;;;17.50;99.90;;;;;;5071438;28;20462;-44
2023/08/03 08:08:31;;;;;;;6.03;1.67;;;17.50;99.90;;;;;;5071045;28;20013;-48
2023/08/03 08:10:57;;;;;;;7.68;2.38;;;17.50;99.90;;;;;;5071318;28;20086;-46
2023/08/03 08:13:22;;;;;;;12.25;1.90;;;17.50;99.90;;;;;;5071632;28;20096;-49
2023/08/03 08:15:48;;;;;;;9.73;1.92;;;17.50;99.90;;;;;;5071652;28;20031;-46
2023/08/03 08:18:13;;;;;;;6.85;2.33;;;17.50;99.90;;;;;;5071401;28;20050;-44
2023/08/03 08:20:39;;;;;;;13.13;2.60;;;17.50;99.90;;;;;;5071222;28;20044;-49
2023/08/03 08:23:04;;;;;;;5.85;1.10;;;17.50;99.90;;;;;;5071221;28;20024;-45
2023/08/03 08:25:34;;;;;;;7.65;1.55;;;17.60;99.90;;;;;;5071226;28;20032;-53
2023/08/03 08:27:59;;;;;;;9.73;1.92;;;17.60;99.90;;;;;;5071366;28;20056;-45
2023/08/03 08:30:25;;;;;;;4.57;1.05;;;17.80;99.90;;;;;;5071146;28;20052;-48
2023/08/03 08:32:52;;;;;;;4.38;1.50;;;17.90;99.90;;;;;;5071086;28;20017;-45
2023/08/03 08:35:17;;;;;;;8.18;1.80;;;18.00;99.90;;;;;;5071079;28;20055;-45
2023/08/03 08:37:43;;;;;;;3.85;1.30;;;18.00;99.90;;;;;;5071137;28;20056;-49
2023/08/03 08:40:13;;;;;;;4.60;1.20;;;18.10;99.90;;;;;;5070954;28;20415;-46
2023/08/03 08:42:38;;;;;;;4.45;1.77;;;18.20;99.90;;;;;;5061071;28;20475;-47
2023/08/03 08:45:07;;;;;;;3.53;1.27;;;18.30;99.90;;;;;;5057274;28;20029;-48
2023/08/03 08:47:33;;;;;;;10.65;2.45;;;18.30;99.90;;;;;;5072495;28;20396;-47
2023/08/03 08:49:58;;;;;;;4.60;1.13;;;18.30;99.90;;;;;;5062196;28;20021;-46
2023/08/03 08:52:28;;;;;;;5.05;1.30;;;18.30;99.90;;;;;;5055085;28;20025;-50
2023/08/03 08:55:23;;;;;;;4.38;1.27;;;18.40;99.90;;;;;;5055303;28;20025;-47
2023/08/03 08:57:50;;;;;;;6.72;1.55;;;18.30;99.90;;;;;;5055178;28;20097;-47
2023/08/03 09:00:16;;;;;;;8.07;2.67;;;18.10;99.90;;;;;;5065883;28;20109;-47
2023/08/03 09:02:41;;;;;;;7.65;1.15;;;18.10;99.90;;;;;;5055061;28;20108;-43
2023/08/03 09:05:20;;;;;;;2.53;1.05;;;18.00;99.90;;;;;;5062637;28;20504;-45
2023/08/03 09:08:02;;;;;;;5.55;1.27;;;18.00;99.90;;;;;;5071071;28;20017;-46
2023/08/03 09:10:28;;;;;;;4.43;1.80;;;18.00;99.90;;;;;;5059717;28;20017;-46
2023/08/03 09:12:54;;;;;;;3.15;1.60;;;18.20;99.90;;;;;;5055879;28;20021;-45
2023/08/03 09:15:35;;;;;;;14.27;2.80;;;18.30;99.90;;;;;;5067981;28;20503;-45
2023/08/03 09:18:05;;;;;;;14.85;2.08;;;18.60;99.90;;;;;;5065254;28;20032;-50
2023/08/03 09:20:31;;;;;;;6.03;1.20;;;18.80;99.90;;;;;;5073425;28;20025;-45
2023/08/03 09:22:57;;;;;;;3.17;1.33;;;19.10;99.90;;;;;;5074502;28;20147;-49
2023/08/03 09:25:22;;;;;;;7.68;1.67;;;19.40;99.90;;;;;;5074368;28;20039;-47
2023/08/03 09:27:50;;;;;;;5.00;1.50;;;19.40;99.90;;;;;;5074370;28;20021;-44
2023/08/03 09:30:16;;;;;;;5.47;2.22;;;19.50;99.90;;;;;;5074166;28;20025;-46
2023/08/03 09:32:42;;;;;;;5.57;1.83;;;19.70;99.90;;;;;;5072623;28;20038;-44
2023/08/03 09:35:17;;;;;;;6.97;1.40;;;19.60;99.90;;;;;;5061851;28;20126;-50
2023/08/03 09:37:43;;;;;;;5.53;1.40;;;19.30;99.90;;;;;;5054183;28;20048;-44
2023/08/03 09:40:09;;;;;;;5.72;1.40;;;19.10;99.90;;;;;;5053951;28;20481;-44
2023/08/03 09:42:37;;;;;;;6.18;1.30;;;18.90;99.90;;;;;;5054065;28;20071;-44
2023/08/03 09:45:03;;;;;;;2.95;0.90;;;18.80;99.90;;;;;;5053995;28;20032;-44
2023/08/03 09:47:30;;;;;;;3.28;0.90;;;18.70;99.90;;;;;;5054254;28;20033;-45
2023/08/03 09:49:56;;;;;;;3.08;1.30;;;18.70;99.90;;;;;;5055211;28;20250;-45
2023/08/03 09:52:25;;;;;;;5.07;1.17;;;18.60;99.90;;;;;;5053860;28;20540;-47
2023/08/03 09:55:12;;;;;;;2.35;1.38;;;18.60;99.90;;;;;;5053933;28;20572;-43
2023/08/03 09:57:41;;;;;;;2.15;1.02;;;18.70;99.90;;;;;;5062029;28;20031;-46
2023/08/03 10:00:08;;;;;;;18.05;10.18;;;18.80;99.90;;;;;;5060363;28;21414;-50
2023/08/03 10:02:51;;;;;;;6.55;3.40;;;18.80;99.90;;;;;;5090143;28;20029;-48
2023/08/03 10:05:19;;;;;;;6.88;2.72;;;18.80;99.90;;;;;;5072906;28;20043;-46
2023/08/03 10:08:04;;;;;;;5.55;1.23;;;18.80;99.90;;;;;;5065031;28;20383;-51
2023/08/03 10:10:37;;;;;;;5.40;1.00;;;18.90;99.90;;;;;;5059714;28;20024;-46
2023/08/03 10:13:04;;;;;;;3.92;1.02;;;18.80;99.90;;;;;;5073188;28;20033;-46
2023/08/03 10:15:31;;;;;;;2.72;0.70;;;18.90;99.90;;;;;;5073395;28;20500;-46
2023/08/03 10:17:57;;;;;;;6.82;1.10;;;18.80;99.90;;;;;;5070992;28;20079;-50
2023/08/03 10:20:24;;;;;;;3.47;0.68;;;18.80;99.90;;;;;;5071635;28;20028;-49
2023/08/03 10:23:14;;;;;;;3.03;1.17;;;18.80;99.90;;;;;;5071862;28;20033;-46
2023/08/03 10:26:00;;;;;;;1.58;0.80;;;18.80;99.90;;;;;;5053276;28;20025;-46
2023/08/03 10:28:38;;;;;;;10.27;1.15;;;18.90;99.90;;;;;;5053802;28;20044;-45
2023/08/03 10:31:14;;;;;;;1.15;0.65;;;19.00;99.90;;;;;;5052985;28;20029;-48
2023/08/03 10:33:46;;;;;;;5.25;1.00;;;19.10;99.90;;;;;;5053087;28;20025;-48
2023/08/03 10:36:34;;;;;;;2.50;0.70;;;19.40;99.90;;;;;;5064158;28;20025;-47
2023/08/03 10:39:04;;;;;;;5.07;0.95;;;19.60;99.90;;;;;;5052601;28;20056;-49
2023/08/03 10:41:37;;;;;;;1.85;0.55;;;19.60;99.90;;;;;;5068659;28;20395;-47
2023/08/03 10:44:05;;;;;;;2.03;0.80;;;19.50;99.90;;;;;;5072859;28;20076;-47
2023/08/03 10:46:33;;;;;;;1.75;0.73;;;19.40;99.90;;;;;;5066862;28;20016;-46
2023/08/03 10:48:58;;;;;;;2.10;0.77;;;19.40;99.90;;;;;;5061273;28;20032;-44
2023/08/03 10:51:24;;;;;;;0.88;0.80;;;19.30;99.90;;;;;;5053130;28;20033;-45
2023/08/03 10:53:49;;;;;;;5.25;1.42;;;19.30;99.90;;;;;;5084829;28;20036;-45
2023/08/03 10:56:15;;;;;;;3.13;0.80;;;19.10;99.90;;;;;;5093463;28;20048;-50
2023/08/03 10:58:47;;;;;;;2.08;0.80;;;19.00;99.90;;;;;;5092332;28;20444;-46
2023/08/03 11:01:22;;;;;;;3.78;1.27;;;19.00;99.90;;;;;;5092743;28;20077;-48
2023/08/03 11:03:48;;;;;;;6.38;0.80;;;19.30;99.90;;;;;;5092896;28;20110;-44
2023/08/03 11:06:14;;;;;;;2.40;0.63;;;19.40;99.90;;;;;;5071031;28;20103;-46
2023/08/03 11:08:40;;;;;;;1.33;0.50;;;19.60;99.90;;;;;;5052368;28;20017;-44
2023/08/03 11:11:11;;;;;;;2.78;0.50;;;19.80;99.90;;;;;;5051824;28;20052;-44
2023/08/03 11:13:36;;;;;;;2.55;1.95;;;19.90;99.90;;;;;;5072642;28;20074;-44
2023/08/03 11:16:02;;;;;;;9.52;1.42;;;20.10;99.90;;;;;;5066106;28;20428;-48
2023/08/03 11:18:27;;;;;;;1.10;0.25;;;20.20;99.90;;;;;;5065177;28;20387;-45
2023/08/03 11:20:53;;;;;;;0.75;0.40;;;19.90;99.90;;;;;;5072016;28;20033;-44
2023/08/03 11:23:18;;;;;;;1.30;0.50;;;19.80;99.90;;;;;;5072220;28;20028;-42
2023/08/03 11:25:44;;;;;;;1.85;0.30;;;19.70;99.90;;;;;;5068958;28;20029;-41
2023/08/03 11:28:17;;;;;;;0.98;0.40;;;19.70;99.90;;;;;;5067570;28;20040;-45
2023/08/03 11:30:44;;;;;;;0.38;0.30;;;19.70;99.90;;;;;;5068674;28;20020;-45
2023/08/03 11:33:15;;;;;;;0.55;0.20;;;19.60;99.90;;;;;;5069448;28;20082;-48
2023/08/03 11:35:41;;;;;;;1.33;0.30;;;19.40;99.90;;;;;;5071892;28;20033;-44
2023/08/03 11:38:07;;;;;;;1.17;0.40;;;19.30;99.90;;;;;;5071960;28;20036;-46
2023/08/03 11:40:33;;;;;;;1.25;0.30;;;19.30;99.90;;;;;;5072154;28;20115;-46
2023/08/03 11:43:01;;;;;;;0.20;0.20;;;19.40;99.90;;;;;;5071756;28;20368;-44
2023/08/03 11:45:29;;;;;;;1.25;0.38;;;19.60;99.90;;;;;;5071701;28;20089;-47
2023/08/03 11:47:58;;;;;;;0.47;0.30;;;19.80;99.90;;;;;;5071698;28;20023;-47
2023/08/03 11:50:25;;;;;;;0.80;0.50;;;20.00;99.90;;;;;;5071813;28;20021;-44
2023/08/03 11:53:00;;;;;;;0.90;0.30;;;20.00;99.90;;;;;;5072284;28;20024;-46
2023/08/03 11:55:30;;;;;;;1.65;0.30;;;19.90;99.90;;;;;;5071988;28;20036;-43
2023/08/03 11:58:08;;;;;;;0.20;0.20;;;19.90;99.90;;;;;;5071583;28;20479;-45
2023/08/03 12:00:34;;;;;;;1.13;0.60;;;19.90;99.90;;;;;;5071725;28;20021;-45
2023/08/03 12:03:00;;;;;;;0.20;0.20;;;19.90;99.90;;;;;;5071767;28;20070;-43
2023/08/03 12:05:25;;;;;;;0.77;0.40;;;19.90;99.90;;;;;;5071441;28;20488;-47
2023/08/03 12:07:57;;;;;;;0.22;0.20;;;19.80;99.90;;;;;;5070264;28;20537;-50
2023/08/03 12:10:22;;;;;;;3.28;0.22;;;19.70;99.90;;;;;;5071387;28;20023;-45
2023/08/03 12:12:48;;;;;;;0.77;0.30;;;19.50;99.90;;;;;;5070263;28;20035;-45
2023/08/03 12:15:13;;;;;;;0.20;0.20;;;19.50;99.90;;;;;;5071486;28;20024;-46
2023/08/03 12:17:39;;;;;;;1.25;0.40;;;19.60;99.90;;;;;;5071443;28;20028;-49
2023/08/03 12:20:05;;;;;;;0.65;0.20;;;19.70;99.90;;;;;;5071547;28;20481;-46
2023/08/03 12:22:32;;;;;;;0.22;0.22;;;19.80;99.90;;;;;;5071746;28;20020;-46
2023/08/03 12:24:58;;;;;;;2.15;0.30;;;19.80;99.90;;;;;;5072047;28;20024;-47
2023/08/03 12:27:23;;;;;;;0.65;0.65;;;19.80;99.90;;;;;;5071791;28;20401;-51
2023/08/03 12:29:49;;;;;;;0.68;0.25;;;19.90;99.90;;;;;;5072727;28;20027;-47
2023/08/03 12:32:14;;;;;;;0.20;0.17;;;20.00;99.90;;;;;;5072582;28;20486;-46
2023/08/03 12:34:40;;;;;;;3.88;0.40;;;20.20;99.90;;;;;;5071280;28;20035;-46
2023/08/03 12:37:06;;;;;;;0.40;0.32;;;20.40;99.90;;;;;;5071902;28;20039;-46
2023/08/03 12:39:31;;;;;;;0.40;0.30;;;20.40;99.90;;;;;;5072278;28;20059;-45
2023/08/03 12:41:57;;;;;;;0.20;0.20;;;20.50;99.90;;;;;;5071937;28;20399;-46
2023/08/03 12:44:26;;;;;;;0.20;0.20;;;20.60;99.90;;;;;;5071609;28;20108;-49